createdAt,value
2018-02-09T00:00:16.554Z,30.00
2018-02-09T00:02:42.527Z,28.60
2018-02-09T00:05:09.231Z,31.63
2018-02-09T00:07:35.708Z,30.23
2018-02-09T00:10:02.436Z,30.63
2018-02-09T00:12:29.161Z,27.80
2018-02-09T00:14:55.118Z,28.37
2018-02-09T00:17:21.107Z,29.57
2018-02-09T00:19:47.064Z,31.20
2018-02-09T00:22:13.133Z,31.27
2018-02-09T00:24:39.148Z,31.87
2018-02-09T00:27:05.122Z,30.87
2018-02-09T00:29:31.836Z,31.00
2018-02-09T00:31:57.808Z,31.77
2018-02-09T00:34:24.859Z,31.60
2018-02-09T00:36:50.804Z,28.57
2018-02-09T00:39:16.769Z,29.10
2018-02-09T00:41:42.752Z,27.53
2018-02-09T00:44:08.724Z,29.67
2018-02-09T00:46:35.440Z,31.40
2018-02-09T00:49:01.434Z,30.23
2018-02-09T00:51:27.402Z,27.33
2018-02-09T00:53:53.378Z,25.73
2018-02-09T00:56:20.102Z,28.40
2018-02-09T00:58:46.100Z,27.83
2018-02-09T01:01:12.125Z,25.63
2018-02-09T01:03:38.103Z,26.30
2018-02-09T01:06:04.072Z,27.93
2018-02-09T01:08:30.785Z,25.77
2018-02-09T01:10:56.773Z,28.87
2018-02-09T01:13:23.049Z,28.70
2018-02-09T01:15:49.022Z,29.07
2018-02-09T01:18:15.033Z,30.80
2018-02-09T01:20:41.147Z,29.83
2018-02-09T01:23:07.131Z,28.33
2018-02-09T01:25:33.115Z,28.63
2018-02-09T01:27:59.084Z,28.27
2018-02-09T01:30:25.111Z,28.37
2018-02-09T01:32:51.108Z,30.10
2018-02-09T01:35:17.072Z,26.30
2018-02-09T01:37:43.097Z,28.07
2018-02-09T01:40:09.074Z,28.97
2018-02-09T01:42:35.036Z,29.33
2018-02-09T01:45:01.752Z,27.90
2018-02-09T01:47:27.748Z,28.97
2018-02-09T01:50:06.227Z,28.40
2018-02-09T01:52:32.951Z,28.40
2018-02-09T01:54:58.912Z,27.67
2018-02-09T01:57:24.884Z,31.67
2018-02-09T01:59:50.845Z,27.90
2018-02-09T02:02:16.821Z,29.47
2018-02-09T02:04:42.863Z,29.60
2018-02-09T02:07:09.585Z,28.77
2018-02-09T02:09:35.544Z,28.63
2018-02-09T02:12:01.504Z,28.13
2018-02-09T02:14:28.212Z,27.07
2018-02-09T02:16:54.190Z,27.97
2018-02-09T02:19:20.938Z,29.10
2018-02-09T02:21:47.651Z,29.20
2018-02-09T02:24:13.676Z,28.13
2018-02-09T02:26:39.666Z,26.17
2018-02-09T02:29:06.380Z,31.43
2018-02-09T02:31:32.600Z,29.73
2018-02-09T02:33:58.588Z,27.73
2018-02-09T02:36:25.307Z,27.80
2018-02-09T02:38:51.304Z,29.60
2018-02-09T02:41:17.280Z,28.57
2018-02-09T02:43:43.353Z,27.87
2018-02-09T02:46:10.086Z,28.50
2018-02-09T02:48:36.065Z,30.07
2018-02-09T02:51:02.045Z,28.17
2018-02-09T02:53:28.048Z,27.33
2018-02-09T02:55:54.022Z,31.13
2018-02-09T02:58:20.014Z,30.17
2018-02-09T03:00:46.037Z,28.00
2018-02-09T03:03:12.040Z,26.57
2018-02-09T03:05:38.008Z,26.97
2018-02-09T03:08:03.996Z,28.83
2018-02-09T03:10:29.972Z,28.10
2018-02-09T03:12:56.692Z,28.73
2018-02-09T03:15:22.704Z,29.97
2018-02-09T03:17:48.684Z,28.13
2018-02-09T03:20:15.420Z,29.17
2018-02-09T03:22:41.489Z,27.43
2018-02-09T03:25:07.458Z,27.60
2018-02-09T03:27:33.459Z,25.70
2018-02-09T03:30:00.161Z,28.13
2018-02-09T03:32:26.160Z,28.93
2018-02-09T03:34:52.134Z,27.70
2018-02-09T03:37:18.116Z,27.40
2018-02-09T03:39:44.869Z,28.47
2018-02-09T03:42:10.954Z,27.97
2018-02-09T03:44:36.941Z,28.10
2018-02-09T03:47:03.644Z,27.47
2018-02-09T03:49:29.616Z,26.37
2018-02-09T03:51:56.326Z,28.20
2018-02-09T03:54:22.300Z,27.60
2018-02-09T03:56:49.009Z,28.20
2018-02-09T03:59:15.036Z,28.13
2018-02-09T04:01:41.436Z,29.37
2018-02-09T04:04:07.454Z,28.00
2018-02-09T04:06:33.765Z,29.53
2018-02-09T04:08:59.739Z,28.47
2018-02-09T04:11:25.700Z,28.20
2018-02-09T04:13:52.416Z,27.97
2018-02-09T04:16:18.379Z,28.03
2018-02-09T04:18:45.123Z,29.10
2018-02-09T04:21:11.888Z,29.10
2018-02-09T04:23:37.875Z,30.63
2018-02-09T04:26:03.852Z,31.37
2018-02-09T04:28:30.560Z,29.50
2018-02-09T04:30:56.520Z,28.63
2018-02-09T04:33:22.492Z,30.23
2018-02-09T04:35:48.444Z,31.07
2018-02-09T04:38:14.454Z,28.77
2018-02-09T04:40:41.469Z,29.80
2018-02-09T04:43:07.460Z,32.37
2018-02-09T04:45:33.431Z,29.77
2018-02-09T04:47:59.400Z,30.17
2018-02-09T04:50:25.364Z,29.50
2018-02-09T04:52:51.348Z,29.73
2018-02-09T04:55:17.344Z,29.63
2018-02-09T04:57:43.346Z,29.97
2018-02-09T05:00:10.083Z,29.90
2018-02-09T05:02:36.788Z,28.80
2018-02-09T05:05:02.800Z,30.23
2018-02-09T05:07:29.556Z,29.97
2018-02-09T05:09:56.276Z,29.33
2018-02-09T05:12:22.232Z,27.50
2018-02-09T05:14:48.949Z,29.67
2018-02-09T05:17:14.963Z,30.07
2018-02-09T05:19:40.984Z,25.73
2018-02-09T05:22:06.959Z,24.63
2018-02-09T05:24:32.929Z,27.87
2018-02-09T05:26:59.635Z,28.00
2018-02-09T05:29:25.605Z,30.40
2018-02-09T05:31:51.559Z,28.77
2018-02-09T05:34:18.276Z,29.97
2018-02-09T05:36:44.291Z,30.13
2018-02-09T05:39:10.269Z,30.67
2018-02-09T05:41:36.974Z,29.67
2018-02-09T05:44:02.936Z,28.67
2018-02-09T05:46:28.929Z,28.80
2018-02-09T05:48:54.892Z,29.60
2018-02-09T05:51:20.858Z,29.73
2018-02-09T05:53:46.836Z,30.03
2018-02-09T05:56:12.827Z,30.53
2018-02-09T05:58:39.540Z,30.43
2018-02-09T06:01:05.515Z,31.87
2018-02-09T06:03:31.490Z,30.80
2018-02-09T06:05:57.468Z,31.73
2018-02-09T06:08:23.476Z,31.77
2018-02-09T06:10:49.409Z,32.27
2018-02-09T06:13:15.425Z,30.53
2018-02-09T06:15:41.501Z,32.40
2018-02-09T06:18:07.495Z,32.60
2018-02-09T06:20:33.484Z,28.93
2018-02-09T06:22:59.504Z,31.27
2018-02-09T06:25:25.486Z,29.80
2018-02-09T06:27:52.192Z,32.17
2018-02-09T06:30:18.242Z,30.70
2018-02-09T06:32:44.253Z,32.97
2018-02-09T06:35:10.492Z,29.63
2018-02-09T06:37:36.452Z,30.53
2018-02-09T06:40:02.446Z,31.97
2018-02-09T06:42:28.421Z,31.50
2018-02-09T06:44:54.391Z,31.90
2018-02-09T06:47:21.104Z,31.53
2018-02-09T06:49:47.117Z,33.10
2018-02-09T06:52:13.878Z,32.33
2018-02-09T06:54:40.632Z,32.03
2018-02-09T06:57:07.347Z,33.87
2018-02-09T06:59:33.359Z,32.77
2018-02-09T07:01:59.354Z,31.30
2018-02-09T07:04:26.185Z,32.27
2018-02-09T07:06:52.964Z,28.63
2018-02-09T07:09:19.700Z,31.27
2018-02-09T07:11:46.404Z,29.47
2018-02-09T07:14:12.398Z,31.47
2018-02-09T07:16:39.105Z,28.30
2018-02-09T07:19:05.088Z,33.10
2018-02-09T07:21:31.818Z,31.47
2018-02-09T07:23:58.049Z,30.27
2018-02-09T07:26:24.348Z,30.27
2018-02-09T07:28:50.372Z,31.47
2018-02-09T07:31:16.521Z,32.23
2018-02-09T07:33:42.520Z,32.20
2018-02-09T07:36:08.518Z,32.67
2018-02-09T07:38:34.546Z,32.03
2018-02-09T07:41:00.537Z,30.43
2018-02-09T07:43:27.386Z,31.20
2018-02-09T07:45:54.161Z,30.63
2018-02-09T07:48:20.357Z,28.60
2018-02-09T07:50:47.076Z,30.47
2018-02-09T07:53:13.040Z,31.77
2018-02-09T07:55:39.007Z,31.13
2018-02-09T07:58:05.736Z,30.83
2018-02-09T08:00:31.725Z,30.67
2018-02-09T08:02:57.732Z,31.50
2018-02-09T08:05:24.510Z,30.80
2018-02-09T08:07:50.527Z,32.33
2018-02-09T08:10:17.248Z,29.90
2018-02-09T08:12:43.220Z,31.73
2018-02-09T08:15:09.221Z,28.87
2018-02-09T08:17:35.264Z,31.17
2018-02-09T08:20:01.274Z,30.97
2018-02-09T08:22:27.280Z,29.80
2018-02-09T08:24:53.276Z,29.97
2018-02-09T08:27:19.233Z,32.87
2018-02-09T08:29:45.211Z,31.20
2018-02-09T08:32:11.192Z,30.13
2018-02-09T08:34:37.928Z,31.60
2018-02-09T08:37:03.908Z,30.10
2018-02-09T08:39:29.936Z,30.57
2018-02-09T08:41:55.914Z,30.30
2018-02-09T08:44:21.902Z,29.40
2018-02-09T08:46:47.860Z,31.80
2018-02-09T08:49:13.866Z,31.97
2018-02-09T08:51:40.592Z,31.10
2018-02-09T08:54:06.630Z,32.73
2018-02-09T08:56:32.613Z,31.57
2018-02-09T08:58:58.685Z,32.40
2018-02-09T09:01:24.671Z,32.60
2018-02-09T09:03:50.656Z,33.37
2018-02-09T09:06:16.621Z,33.33
2018-02-09T09:08:42.600Z,32.70
2018-02-09T09:11:08.567Z,33.33
2018-02-09T09:13:34.540Z,34.77
2018-02-09T09:16:00.512Z,32.27
2018-02-09T09:18:26.480Z,32.83
2018-02-09T09:20:52.495Z,34.07
2018-02-09T09:23:18.565Z,32.63
2018-02-09T09:25:44.572Z,33.50
2018-02-09T09:28:10.544Z,31.10
2018-02-09T09:30:37.258Z,33.90
2018-02-09T09:33:03.232Z,31.60
2018-02-09T09:35:29.976Z,33.43
2018-02-09T09:37:56.704Z,33.00
2018-02-09T09:40:22.720Z,32.67
2018-02-09T09:42:48.724Z,33.20
2018-02-09T09:45:14.742Z,32.60
2018-02-09T09:47:41.486Z,33.00
2018-02-09T09:50:08.200Z,31.50
2018-02-09T09:52:34.160Z,32.70
2018-02-09T09:55:00.132Z,31.97
2018-02-09T09:57:26.108Z,32.53
2018-02-09T09:59:52.120Z,31.83
2018-02-09T10:02:30.595Z,32.60
2018-02-09T10:04:56.564Z,30.87
2018-02-09T10:07:22.582Z,30.23
2018-02-09T10:09:49.376Z,33.40
2018-02-09T10:12:15.357Z,33.07
2018-02-09T10:14:41.333Z,29.70
2018-02-09T10:17:07.304Z,32.43
2018-02-09T10:19:33.284Z,33.47
2018-02-09T10:22:00.012Z,32.57
2018-02-09T10:24:26.021Z,31.90
2018-02-09T10:26:52.041Z,33.07
2018-02-09T10:29:18.135Z,32.47
2018-02-09T10:31:44.888Z,32.87
2018-02-09T10:34:10.867Z,32.47
2018-02-09T10:36:36.840Z,32.20
2018-02-09T10:39:02.855Z,31.13
2018-02-09T10:41:28.846Z,32.80
2018-02-09T10:43:55.600Z,32.47
2018-02-09T10:46:22.475Z,33.07
2018-02-09T10:48:48.546Z,32.37
2018-02-09T10:51:14.533Z,34.07
2018-02-09T10:53:41.274Z,31.30
2018-02-09T10:56:08.005Z,32.57
2018-02-09T10:58:33.969Z,31.03
2018-02-09T11:01:00.695Z,32.63
2018-02-09T11:03:26.703Z,30.83
2018-02-09T11:05:52.715Z,31.23
2018-02-09T11:08:18.717Z,31.80
2018-02-09T11:10:46.644Z,31.83
2018-02-09T11:13:15.596Z,29.93
2018-02-09T11:15:41.589Z,30.80
2018-02-09T11:18:07.558Z,31.23
2018-02-09T11:20:33.545Z,30.60
2018-02-09T11:22:59.522Z,29.60
2018-02-09T11:25:25.552Z,30.43
2018-02-09T11:27:51.567Z,30.87
2018-02-09T11:30:17.711Z,29.53
2018-02-09T11:32:43.672Z,30.27
2018-02-09T11:35:09.649Z,30.13
2018-02-09T11:37:35.649Z,29.10
2018-02-09T11:40:01.620Z,28.07
2018-02-09T11:42:27.672Z,27.90
2018-02-09T11:44:53.808Z,30.30
2018-02-09T11:47:19.808Z,29.00
2018-02-09T11:49:46.625Z,31.20
2018-02-09T11:52:12.588Z,28.93
2018-02-09T11:54:38.603Z,26.83
2018-02-09T11:57:04.582Z,29.27
2018-02-09T11:59:31.317Z,28.30
2018-02-09T12:01:57.308Z,27.57
2018-02-09T12:04:23.309Z,27.40
2018-02-09T12:06:50.068Z,26.83
2018-02-09T12:09:16.054Z,29.23
2018-02-09T12:11:42.846Z,30.00
2018-02-09T12:14:08.824Z,30.13
2018-02-09T12:16:34.820Z,27.60
2018-02-09T12:19:01.587Z,30.93
2018-02-09T12:21:27.609Z,30.27
2018-02-09T12:23:53.598Z,27.50
2018-02-09T12:26:19.676Z,28.37
2018-02-09T12:28:46.410Z,24.73
2018-02-09T12:31:12.400Z,26.97
2018-02-09T12:33:38.387Z,27.30
2018-02-09T12:36:04.381Z,26.37
2018-02-09T12:38:30.381Z,25.83
2018-02-09T12:40:57.228Z,27.03
2018-02-09T12:43:23.197Z,26.77
2018-02-09T12:45:49.216Z,24.47
2018-02-09T12:48:15.183Z,21.07
2018-02-09T12:50:41.196Z,21.53
2018-02-09T12:53:07.167Z,22.40
2018-02-09T12:55:33.203Z,21.40
2018-02-09T12:57:59.230Z,20.17
2018-02-09T13:00:25.220Z,19.20
2018-02-09T13:02:52.132Z,20.97
2018-02-09T13:05:18.190Z,19.67
2018-02-09T13:07:44.236Z,20.53
2018-02-09T13:10:10.248Z,20.10
2018-02-09T13:56:28.544Z,18.03
2018-02-09T13:58:54.639Z,22.53
2018-02-09T14:01:20.692Z,20.77
2018-02-09T14:03:46.707Z,20.60
2018-02-09T14:06:12.695Z,19.53
2018-02-09T14:08:38.679Z,18.10
2018-02-09T14:11:04.685Z,19.90
2018-02-09T14:13:31.403Z,18.43
2018-02-09T14:15:57.388Z,19.20
2018-02-09T14:18:23.459Z,18.50
2018-02-09T14:20:49.545Z,19.07
2018-02-09T14:23:15.573Z,17.90
2018-02-09T14:25:42.336Z,19.07
2018-02-09T14:28:09.085Z,18.33
2018-02-09T14:30:35.804Z,18.53
2018-02-09T14:33:01.820Z,19.40
2018-02-09T14:35:27.827Z,19.00
2018-02-09T14:37:53.892Z,19.43
2018-02-09T14:40:26.821Z,19.07
2018-02-09T14:42:52.857Z,18.07
2018-02-09T14:45:19.013Z,18.50
2018-02-09T14:47:44.976Z,16.80
2018-02-09T14:50:10.957Z,19.50
2018-02-09T14:52:36.952Z,19.87
2018-02-09T14:55:02.956Z,21.40
2018-02-09T14:57:29.677Z,18.87
2018-02-09T14:59:55.646Z,19.90
2018-02-09T15:02:22.471Z,18.83
2018-02-09T15:04:48.523Z,19.83
2018-02-09T15:07:14.517Z,18.80
2018-02-09T15:09:40.528Z,18.50
2018-02-09T15:12:06.518Z,18.80
2018-02-09T15:14:32.508Z,20.20
2018-02-09T15:16:58.516Z,19.60
2018-02-09T15:19:25.243Z,19.63
2018-02-09T15:21:51.332Z,19.20
2018-02-09T15:24:17.405Z,20.50
2018-02-09T15:26:43.396Z,18.90
2018-02-09T15:29:09.384Z,19.60
2018-02-09T15:31:35.365Z,19.63
2018-02-09T15:34:02.084Z,18.47
2018-02-09T15:36:28.815Z,19.00
2018-02-09T15:38:54.898Z,18.43
2018-02-09T15:41:21.769Z,19.10
2018-02-09T15:43:47.777Z,18.90
2018-02-09T15:46:13.750Z,17.00
2018-02-09T15:48:39.720Z,18.60
2018-02-09T15:51:05.700Z,18.90
2018-02-09T15:53:32.424Z,20.63
2018-02-09T15:55:58.425Z,18.63
2018-02-09T15:58:24.435Z,19.57
2018-02-09T16:00:50.534Z,20.03
2018-02-09T16:03:16.547Z,20.00
2018-02-09T16:05:42.536Z,22.37
2018-02-09T16:08:08.528Z,24.43
2018-02-09T16:10:34.505Z,23.00
2018-02-09T16:13:00.520Z,24.17
2018-02-09T16:15:27.242Z,21.90
2018-02-09T16:17:53.273Z,21.73
2018-02-09T16:20:19.384Z,18.00
2018-02-09T16:22:45.368Z,20.00
2018-02-09T16:25:11.412Z,19.07
2018-02-09T16:27:37.402Z,19.93
2018-02-09T16:30:03.389Z,20.80
2018-02-09T16:32:29.421Z,20.13
2018-02-09T16:34:55.429Z,21.20
2018-02-09T16:37:21.568Z,21.33
2018-02-09T16:39:47.618Z,22.07
2018-02-09T16:42:13.606Z,21.57
2018-02-09T16:44:39.590Z,20.57
2018-02-09T16:47:05.568Z,20.50
2018-02-09T16:49:32.308Z,22.23
2018-02-09T16:51:59.117Z,19.47
2018-02-09T16:54:25.365Z,21.03
2018-02-09T16:56:51.643Z,21.40
2018-02-09T16:59:18.083Z,19.37
2018-02-09T17:01:44.105Z,21.97
2018-02-09T17:04:10.108Z,19.83
2018-02-09T17:06:36.866Z,20.07
2018-02-09T17:09:02.907Z,21.27
2018-02-09T17:11:28.884Z,19.20
2018-02-09T17:13:54.860Z,20.33
2018-02-09T17:16:20.884Z,21.67
2018-02-09T17:18:46.888Z,20.53
2018-02-09T17:21:12.854Z,19.40
2018-02-09T17:23:38.848Z,19.17
2018-02-09T17:26:04.913Z,20.63
2018-02-09T17:28:30.937Z,19.53
2018-02-09T17:30:56.936Z,20.70
2018-02-09T17:33:23.646Z,21.00
2018-02-09T17:35:49.680Z,20.10
2018-02-09T17:38:15.680Z,19.73
2018-02-09T17:40:41.676Z,19.03
2018-02-09T17:43:07.686Z,19.67
2018-02-09T17:45:33.751Z,18.87
2018-02-09T17:48:00.178Z,20.13
2018-02-09T17:50:29.957Z,19.63
2018-02-09T17:52:55.940Z,20.53
2018-02-09T17:55:21.912Z,20.17
2018-02-09T17:57:48.657Z,18.40
2018-02-09T18:00:15.380Z,25.43
2018-02-09T18:02:41.377Z,19.73
2018-02-09T18:05:07.406Z,20.47
2018-02-09T18:07:33.443Z,20.63
2018-02-09T18:09:59.420Z,19.17
2018-02-09T18:12:25.534Z,19.70
2018-02-09T18:14:51.509Z,20.73
2018-02-09T18:17:17.518Z,20.37
2018-02-09T18:19:43.496Z,19.97
2018-02-09T18:22:09.573Z,19.13
2018-02-09T18:24:35.656Z,20.13
2018-02-09T18:27:01.680Z,21.73
2018-02-09T18:29:27.696Z,22.27
2018-02-09T18:31:53.675Z,27.23
2018-02-09T18:34:20.412Z,20.23
2018-02-09T18:36:46.480Z,19.20
2018-02-09T18:39:12.560Z,20.50
2018-02-09T18:41:38.728Z,21.30
2018-02-09T18:44:05.643Z,22.50
2018-02-09T18:46:32.624Z,19.23
2018-02-09T18:48:58.612Z,19.90
2018-02-09T18:51:25.321Z,20.90
2018-02-09T18:53:51.309Z,20.57
2018-02-09T18:56:17.336Z,21.13
2018-02-09T18:58:43.315Z,19.57
2018-02-09T19:01:09.293Z,18.90
2018-02-09T19:03:36.031Z,20.93
2018-02-09T19:06:08.960Z,20.30
2018-02-09T19:08:35.709Z,19.20
2018-02-09T19:11:02.586Z,19.07
2018-02-09T19:13:28.568Z,18.90
2018-02-09T19:15:54.692Z,18.47
2018-02-09T19:18:20.668Z,19.07
2018-02-09T19:20:47.384Z,19.53
2018-02-09T19:23:13.370Z,18.13
2018-02-09T19:25:40.193Z,19.27
2018-02-09T19:28:06.969Z,17.93
2018-02-09T19:30:33.782Z,18.33
2018-02-09T19:32:59.898Z,20.33
2018-02-09T19:35:25.911Z,19.27
2018-02-09T19:37:52.624Z,18.80
2018-02-09T19:40:18.648Z,20.90
2018-02-09T19:42:44.708Z,20.00
2018-02-09T19:45:10.697Z,17.57
2018-02-09T19:47:37.161Z,18.00
2018-02-09T19:50:03.190Z,18.43
2018-02-09T19:52:29.708Z,18.00
2018-02-09T19:54:56.043Z,17.67
2018-02-09T19:57:22.795Z,18.77
2018-02-09T19:59:49.548Z,17.57
2018-02-09T20:02:16.324Z,17.63
2018-02-09T20:04:42.324Z,16.87
2018-02-09T20:07:08.414Z,17.23
2018-02-09T20:09:34.455Z,16.83
2018-02-09T20:12:00.478Z,16.97
2018-02-09T20:14:26.741Z,16.10
2018-02-09T20:16:52.799Z,15.63
2018-02-09T20:19:19.348Z,15.63
2018-02-09T20:21:45.501Z,16.50
2018-02-09T20:24:11.505Z,17.97
2018-02-09T20:26:37.534Z,16.40
2018-02-09T20:29:03.546Z,16.13
2018-02-09T20:31:29.570Z,18.93
2018-02-09T20:33:55.641Z,17.07
2018-02-09T20:36:21.655Z,19.43
2018-02-09T20:38:47.685Z,17.57
2018-02-09T20:41:13.783Z,16.93
2018-02-09T20:43:39.777Z,16.50
2018-02-09T20:46:05.933Z,17.00
2018-02-09T20:48:32.447Z,17.23
2018-02-09T20:50:58.620Z,17.17
2018-02-09T20:53:24.750Z,17.10
2018-02-09T20:55:50.831Z,17.07
2018-02-09T20:58:16.841Z,16.70
2018-02-09T21:00:42.966Z,19.37
2018-02-09T21:03:09.030Z,16.60
2018-02-09T21:05:35.045Z,17.60
2018-02-09T21:08:01.088Z,15.80
2018-02-09T21:10:27.061Z,18.23
2018-02-09T21:12:53.032Z,17.13
2018-02-09T21:15:19.008Z,18.03
2018-02-09T21:17:45.790Z,17.60
2018-02-09T21:20:12.525Z,17.40
2018-02-09T21:22:38.630Z,17.57
2018-02-09T21:25:04.684Z,17.13
2018-02-09T21:27:30.756Z,17.13
2018-02-09T21:29:57.516Z,17.40
2018-02-09T21:32:23.527Z,17.43
2018-02-09T21:34:50.317Z,20.20
2018-02-09T21:37:16.334Z,19.03
2018-02-09T21:39:43.089Z,16.87
2018-02-09T21:42:09.815Z,17.67
2018-02-09T21:44:35.832Z,17.90
2018-02-09T21:47:01.942Z,17.03
2018-02-09T21:49:27.926Z,18.20
2018-02-09T21:51:54.662Z,18.40
2018-02-09T21:54:20.654Z,19.20
2018-02-09T21:56:46.659Z,19.00
2018-02-09T21:59:12.674Z,18.33
2018-02-09T22:01:38.761Z,20.37
2018-02-09T22:04:05.728Z,19.63
2018-02-09T22:06:32.652Z,17.93
2018-02-09T22:08:59.396Z,16.93
2018-02-09T22:11:25.372Z,18.10
2018-02-09T22:13:51.380Z,18.60
2018-02-09T22:16:17.362Z,19.80
2018-02-09T22:18:43.488Z,18.93
2018-02-09T22:21:09.507Z,18.40
2018-02-09T22:23:35.532Z,18.20
2018-02-09T22:26:01.662Z,18.50
2018-02-09T22:28:28.877Z,17.57
2018-02-09T22:30:54.876Z,18.47
2018-02-09T22:33:21.773Z,16.60
2018-02-09T22:35:47.734Z,17.97
2018-02-09T22:38:13.734Z,18.60
2018-02-09T22:40:39.741Z,18.83
2018-02-09T22:43:06.484Z,18.23
2018-02-09T22:45:33.456Z,17.20
2018-02-09T22:48:00.369Z,18.07
2018-02-09T22:50:26.352Z,18.33
2018-02-09T22:52:53.060Z,17.13
2018-02-09T22:55:19.041Z,18.37
2018-02-09T22:57:45.028Z,18.27
2018-02-09T23:00:11.329Z,16.50
2018-02-09T23:02:38.133Z,15.90
2018-02-09T23:05:04.195Z,16.63
2018-02-09T23:07:30.212Z,17.50
2018-02-09T23:09:56.288Z,18.97
2018-02-09T23:12:22.260Z,16.40
2018-02-09T23:14:48.388Z,16.80
2018-02-09T23:17:14.372Z,17.07
2018-02-09T23:19:41.955Z,18.50
2018-02-09T23:22:08.714Z,18.23
2018-02-09T23:24:35.530Z,18.53
2018-02-09T23:27:01.544Z,16.67
2018-02-09T23:29:27.512Z,18.83
2018-02-09T23:31:54.023Z,17.33
2018-02-09T23:34:20.058Z,16.80
2018-02-09T23:36:45.991Z,16.93
2018-02-09T23:39:11.992Z,18.90
2018-02-09T23:41:38.824Z,17.90
2018-02-09T23:44:04.864Z,20.10
2018-02-09T23:46:31.196Z,17.50
2018-02-09T23:48:57.930Z,16.37
2018-02-09T23:51:23.944Z,17.27
2018-02-09T23:53:49.945Z,19.17
2018-02-09T23:56:16.610Z,18.13
2018-02-09T23:58:42.633Z,16.47
